createdAt,value
2023-02-22T00:04:49.860Z,8.55
2023-02-22T00:09:50.957Z,7.88
2023-02-22T00:14:53.143Z,10.93
2023-02-22T00:19:54.295Z,8.63
2023-02-22T00:24:55.605Z,10.77
2023-02-22T00:29:57.591Z,9.60
2023-02-22T00:35:00.177Z,11.05
2023-02-22T00:40:00.823Z,10.00
2023-02-22T00:45:03.718Z,9.57
2023-02-22T00:50:04.597Z,14.25
2023-02-22T00:55:06.449Z,10.90
2023-02-22T01:00:12.893Z,10.50
2023-02-22T01:05:16.353Z,10.23
2023-02-22T01:10:19.384Z,9.90
2023-02-22T01:15:22.680Z,13.25
2023-02-22T01:20:25.513Z,9.98
2023-02-22T01:25:29.799Z,12.45
2023-02-22T01:30:34.269Z,8.98
2023-02-22T01:35:36.592Z,9.60
2023-02-22T01:40:39.478Z,14.23
2023-02-22T01:45:48.676Z,10.57
2023-02-22T01:50:55.225Z,13.07
2023-02-22T01:55:57.286Z,11.73
2023-02-22T02:00:59.543Z,13.00
2023-02-22T02:06:04.009Z,11.93
2023-02-22T02:11:09.661Z,13.98
2023-02-22T02:16:11.879Z,11.07
2023-02-22T02:21:41.453Z,9.95
2023-02-22T02:27:04.025Z,14.65
2023-02-22T02:32:33.234Z,12.15
2023-02-22T02:37:41.918Z,12.18
2023-02-22T02:42:51.486Z,13.90
2023-02-22T02:47:58.748Z,13.10
2023-02-22T02:53:03.417Z,15.18
2023-02-22T02:58:05.844Z,13.40
2023-02-22T03:03:23.487Z,13.75
2023-02-22T03:08:33.485Z,20.58
2023-02-22T03:13:42.006Z,15.25
2023-02-22T03:18:52.359Z,15.80
2023-02-22T03:24:01.799Z,13.73
2023-02-22T03:29:05.232Z,13.93
2023-02-22T03:34:12.350Z,10.65
2023-02-22T03:39:17.110Z,17.08
2023-02-22T03:44:24.601Z,16.08
2023-02-22T03:49:36.112Z,16.08
2023-02-22T03:54:38.542Z,10.98
2023-02-22T03:59:40.279Z,16.33
2023-02-22T04:04:42.268Z,12.77
2023-02-22T04:09:43.228Z,17.02
2023-02-22T04:14:44.742Z,13.90
2023-02-22T04:19:46.783Z,17.48
2023-02-22T04:24:48.974Z,15.10
2023-02-22T04:29:51.537Z,15.50
2023-02-22T04:34:53.636Z,15.50
2023-02-22T04:39:54.395Z,18.15
2023-02-22T04:44:55.325Z,18.35
2023-02-22T04:49:57.505Z,17.58
2023-02-22T04:54:58.322Z,12.52
2023-02-22T04:59:59.723Z,15.90
2023-02-22T05:05:01.803Z,21.30
2023-02-22T05:10:03.257Z,14.15
2023-02-22T05:15:04.126Z,15.25
2023-02-22T05:20:08.671Z,16.02
2023-02-22T05:25:11.333Z,17.95
2023-02-22T05:30:13.359Z,15.75
2023-02-22T05:35:16.075Z,17.10
2023-02-22T05:40:18.369Z,17.10
2023-02-22T05:45:20.929Z,18.27
2023-02-22T05:50:23.243Z,18.42
2023-02-22T05:55:24.936Z,16.83
2023-02-22T06:00:29.308Z,20.17
2023-02-22T06:05:32.337Z,14.43
2023-02-22T06:10:34.379Z,16.77
2023-02-22T06:15:35.097Z,17.20
2023-02-22T06:20:37.083Z,20.27
2023-02-22T06:25:37.733Z,17.17
2023-02-22T06:30:38.675Z,17.13
2023-02-22T06:35:40.701Z,16.02
2023-02-22T06:40:41.673Z,13.18
2023-02-22T06:45:42.382Z,17.73
2023-02-22T06:50:44.378Z,22.20
2023-02-22T06:55:46.831Z,30.65
2023-02-22T07:00:47.525Z,15.98
2023-02-22T07:05:49.510Z,22.27
2023-02-22T07:10:50.902Z,18.90
2023-02-22T07:15:51.544Z,16.25
2023-02-22T07:20:54.327Z,17.23
2023-02-22T07:25:55.064Z,20.77
2023-02-22T07:30:55.894Z,15.70
2023-02-22T07:35:57.863Z,19.40
2023-02-22T07:40:58.942Z,15.25
2023-02-22T07:46:02.822Z,16.77
2023-02-22T07:51:05.978Z,15.63
2023-02-22T07:56:08.834Z,16.08
2023-02-22T08:01:10.230Z,20.70
2023-02-22T08:06:12.556Z,15.18
2023-02-22T08:11:14.648Z,18.23
2023-02-22T08:16:15.428Z,19.55
2023-02-22T08:21:18.946Z,18.80
2023-02-22T08:26:20.829Z,17.75
2023-02-22T08:31:21.664Z,19.88
2023-02-22T08:36:23.679Z,19.33
2023-02-22T08:41:24.329Z,19.20
2023-02-22T08:46:25.262Z,19.13
2023-02-22T08:51:27.916Z,19.70
2023-02-22T08:56:30.053Z,22.38
2023-02-22T09:01:33.476Z,23.13
2023-02-22T09:06:36.292Z,21.38
2023-02-22T09:11:37.013Z,19.30
2023-02-22T09:16:38.199Z,20.05
2023-02-22T09:21:41.262Z,22.30
2023-02-22T09:26:47.794Z,20.33
2023-02-22T09:31:48.551Z,18.52
2023-02-22T09:36:51.166Z,19.02
2023-02-22T09:41:58.742Z,19.80
2023-02-22T09:46:59.738Z,19.42
2023-02-22T09:52:06.046Z,21.50
2023-02-22T09:57:10.641Z,23.05
2023-02-22T10:02:24.613Z,19.55
2023-02-22T10:07:31.913Z,23.52
2023-02-22T10:12:45.138Z,25.70
2023-02-22T10:17:58.827Z,18.42
2023-02-22T10:23:12.815Z,16.52
2023-02-22T10:28:20.750Z,18.88
2023-02-22T10:33:24.122Z,18.00
2023-02-22T10:38:28.493Z,17.70
2023-02-22T10:43:29.318Z,17.52
2023-02-22T10:48:32.293Z,17.20
2023-02-22T10:53:37.900Z,12.30
2023-02-22T10:58:47.920Z,15.68
2023-02-22T11:03:58.220Z,12.48
2023-02-22T11:09:11.342Z,12.45
2023-02-22T11:14:13.213Z,12.02
2023-02-22T11:19:20.867Z,8.13
2023-02-22T11:24:30.299Z,11.65
2023-02-22T11:29:35.704Z,9.57
2023-02-22T11:34:42.690Z,7.68
2023-02-22T11:39:45.720Z,7.22
2023-02-22T11:44:47.021Z,10.20
2023-02-22T11:49:47.762Z,9.63
2023-02-22T11:55:04.324Z,7.32
2023-02-22T12:00:16.721Z,9.85
2023-02-22T12:05:28.890Z,7.13
2023-02-22T12:10:47.048Z,8.32
2023-02-22T12:15:56.248Z,6.45
2023-02-22T12:21:01.633Z,6.28
2023-02-22T12:26:11.820Z,6.85
2023-02-22T12:31:20.704Z,6.82
2023-02-22T12:36:26.032Z,6.30
2023-02-22T12:41:38.336Z,5.88
2023-02-22T12:46:43.018Z,6.43
2023-02-22T12:51:49.724Z,7.25
2023-02-22T12:56:56.673Z,6.47
2023-02-22T13:02:01.957Z,4.90
2023-02-22T13:07:24.172Z,4.38
2023-02-22T13:12:36.973Z,4.25
2023-02-22T13:17:45.054Z,5.45
2023-02-22T13:22:51.155Z,4.80
2023-02-22T13:28:00.104Z,4.53
2023-02-22T13:33:17.890Z,4.65
2023-02-22T13:38:38.266Z,4.35
2023-02-22T13:43:59.228Z,5.50
2023-02-22T13:49:12.958Z,3.33
2023-02-22T13:54:22.059Z,3.75
2023-02-22T13:59:28.277Z,3.95
2023-02-22T14:04:40.685Z,5.32
2023-02-22T14:09:46.975Z,6.78
2023-02-22T14:15:28.715Z,6.03
2023-02-22T14:20:32.510Z,4.78
2023-02-22T14:25:40.372Z,5.75
2023-02-22T14:30:42.512Z,7.85
2023-02-22T14:35:50.180Z,5.72
2023-02-22T14:40:53.650Z,5.38
2023-02-22T14:46:00.271Z,5.47
2023-02-22T14:51:19.083Z,5.65
2023-02-22T14:56:24.493Z,10.45
2023-02-22T15:01:47.430Z,10.27
2023-02-22T15:06:59.952Z,15.32
2023-02-22T15:12:13.957Z,13.98
2023-02-22T15:17:20.868Z,14.07
2023-02-22T15:22:24.975Z,16.92
2023-02-22T15:27:26.223Z,23.25
2023-02-22T15:32:36.246Z,20.85
2023-02-22T15:37:37.038Z,14.23
2023-02-22T15:42:45.187Z,16.38
2023-02-22T15:47:48.081Z,14.70
2023-02-22T15:52:53.110Z,15.30
2023-02-22T15:57:54.158Z,16.35
2023-02-22T16:02:58.817Z,15.32
2023-02-22T16:07:59.623Z,19.45
2023-02-22T16:13:14.441Z,17.20
2023-02-22T16:18:33.674Z,14.65
2023-02-22T16:23:45.961Z,17.90
2023-02-22T16:28:52.849Z,16.85
2023-02-22T16:33:55.921Z,19.55
2023-02-22T16:38:56.633Z,16.85
2023-02-22T16:43:57.369Z,17.27
2023-02-22T16:49:03.529Z,17.77
2023-02-22T16:54:04.197Z,22.02
2023-02-22T16:59:11.157Z,18.23
2023-02-22T17:04:17.750Z,14.75
2023-02-22T17:09:20.085Z,19.27
2023-02-22T17:14:24.488Z,19.30
2023-02-22T17:19:26.904Z,19.40
2023-02-22T17:24:29.222Z,16.60
2023-02-22T17:29:30.512Z,16.42
2023-02-22T17:34:32.642Z,18.10
2023-02-22T17:39:33.511Z,17.45
2023-02-22T17:44:35.357Z,15.90
2023-02-22T17:49:37.417Z,22.23
2023-02-22T17:54:40.330Z,17.55
2023-02-22T17:59:43.530Z,18.35
2023-02-22T18:04:45.560Z,18.90
2023-02-22T18:09:46.337Z,22.10
2023-02-22T18:14:47.101Z,18.10
2023-02-22T18:19:49.547Z,16.40
2023-02-22T18:24:50.293Z,15.52
2023-02-22T18:29:51.238Z,20.08
2023-02-22T18:34:53.530Z,17.92
2023-02-22T18:39:55.450Z,15.65
2023-02-22T18:45:00.596Z,19.75
2023-02-22T18:50:02.594Z,16.13
2023-02-22T18:55:03.332Z,15.98
2023-02-22T19:00:07.367Z,18.80
2023-02-22T19:05:10.580Z,19.63
2023-02-22T19:10:11.612Z,16.23
2023-02-22T19:15:12.416Z,23.20
2023-02-22T19:20:14.443Z,18.35
2023-02-22T19:25:15.193Z,15.50
2023-02-22T19:30:17.075Z,17.33
2023-02-22T19:35:26.964Z,21.30
2023-02-22T19:40:27.743Z,20.27
2023-02-22T19:45:28.550Z,18.10
2023-02-22T19:50:30.590Z,18.85
2023-02-22T19:55:32.357Z,23.25
2023-02-22T20:00:35.568Z,19.17
2023-02-22T20:05:41.940Z,23.05
2023-02-22T20:10:42.636Z,23.48
2023-02-22T20:15:45.121Z,18.45
2023-02-22T20:20:47.119Z,20.85
2023-02-22T20:25:53.793Z,16.63
2023-02-22T20:30:54.536Z,22.77
2023-02-22T20:35:56.630Z,18.27
2023-02-22T20:40:57.327Z,24.67
2023-02-22T20:46:01.348Z,19.65
2023-02-22T20:51:07.832Z,19.90
2023-02-22T20:56:12.321Z,20.30
2023-02-22T21:01:17.101Z,22.00
2023-02-22T21:06:21.522Z,18.67
2023-02-22T21:11:23.821Z,23.95
2023-02-22T21:16:26.201Z,17.63
2023-02-22T21:21:29.225Z,20.25
2023-02-22T21:26:31.695Z,19.73
2023-02-22T21:31:34.599Z,20.20
2023-02-22T21:36:38.862Z,21.90
2023-02-22T21:41:40.936Z,20.45
2023-02-22T21:46:41.860Z,21.38
2023-02-22T21:51:44.743Z,18.45
2023-02-22T21:56:45.414Z,23.77
2023-02-22T22:01:48.205Z,18.95
2023-02-22T22:06:53.003Z,24.15
2023-02-22T22:11:58.279Z,19.38
2023-02-22T22:17:01.034Z,18.77
2023-02-22T22:22:03.065Z,20.38
2023-02-22T22:27:06.519Z,22.30
2023-02-22T22:32:07.601Z,22.60
2023-02-22T22:37:09.654Z,19.15
2023-02-22T22:42:10.377Z,20.15
2023-02-22T22:47:13.149Z,23.30
2023-02-22T22:52:19.012Z,20.00
2023-02-22T22:57:20.020Z,20.17
2023-02-22T23:02:21.274Z,20.38
2023-02-22T23:07:23.352Z,23.70
2023-02-22T23:12:31.436Z,20.88
2023-02-22T23:17:41.054Z,17.73
2023-02-22T23:22:47.408Z,22.80
2023-02-22T23:27:48.389Z,20.98
2023-02-22T23:32:49.633Z,23.00
2023-02-22T23:37:53.473Z,23.75
2023-02-22T23:42:54.867Z,24.02
2023-02-22T23:47:57.159Z,22.90
2023-02-22T23:53:03.514Z,22.77
2023-02-22T23:58:04.316Z,21.73
